sensor_id;sensor_type;location;lat;lon;timestamp;P1;durP1;ratioP1;P2;durP2;ratioP2
9117;SDS011;4594;50.994;7.126;2023-02-28T00:01:21;4.03;;;3.80;;
9117;SDS011;4594;50.994;7.126;2023-02-28T00:03:48;4.50;;;4.20;;
9117;SDS011;4594;50.994;7.126;2023-02-28T00:06:14;4.87;;;4.40;;
9117;SDS011;4594;50.994;7.126;2023-02-28T00:08:40;5.10;;;4.60;;
9117;SDS011;4594;50.994;7.126;2023-02-28T00:11:10;4.57;;;4.27;;
9117;SDS011;4594;50.994;7.126;2023-02-28T00:13:39;4.53;;;4.03;;
9117;SDS011;4594;50.994;7.126;2023-02-28T00:16:10;4.70;;;4.30;;
9117;SDS011;4594;50.994;7.126;2023-02-28T00:18:38;4.60;;;4.13;;
9117;SDS011;4594;50.994;7.126;2023-02-28T00:21:04;4.30;;;4.10;;
9117;SDS011;4594;50.994;7.126;2023-02-28T00:23:30;4.50;;;4.30;;
9117;SDS011;4594;50.994;7.126;2023-02-28T00:25:56;4.20;;;3.97;;
9117;SDS011;4594;50.994;7.126;2023-02-28T00:28:22;3.90;;;3.70;;
9117;SDS011;4594;50.994;7.126;2023-02-28T00:30:48;4.40;;;4.20;;
9117;SDS011;4594;50.994;7.126;2023-02-28T00:33:15;4.40;;;4.10;;
9117;SDS011;4594;50.994;7.126;2023-02-28T00:35:41;4.27;;;4.07;;
9117;SDS011;4594;50.994;7.126;2023-02-28T00:38:07;4.10;;;3.73;;
9117;SDS011;4594;50.994;7.126;2023-02-28T00:40:33;4.13;;;3.87;;
9117;SDS011;4594;50.994;7.126;2023-02-28T00:42:58;5.17;;;4.10;;
9117;SDS011;4594;50.994;7.126;2023-02-28T00:45:24;4.00;;;3.80;;
9117;SDS011;4594;50.994;7.126;2023-02-28T00:47:50;3.97;;;3.77;;
9117;SDS011;4594;50.994;7.126;2023-02-28T01:27:43;4.13;;;3.90;;
9117;SDS011;4594;50.994;7.126;2023-02-28T01:30:09;4.70;;;3.47;;
9117;SDS011;4594;50.994;7.126;2023-02-28T01:32:35;4.27;;;4.03;;
9117;SDS011;4594;50.994;7.126;2023-02-28T01:35:01;4.00;;;3.80;;
9117;SDS011;4594;50.994;7.126;2023-02-28T01:37:27;3.93;;;3.73;;
9117;SDS011;4594;50.994;7.126;2023-02-28T01:39:53;4.13;;;3.80;;
9117;SDS011;4594;50.994;7.126;2023-02-28T01:42:18;3.83;;;3.63;;
9117;SDS011;4594;50.994;7.126;2023-02-28T01:44:57;4.30;;;4.00;;
9117;SDS011;4594;50.994;7.126;2023-02-28T01:47:31;3.60;;;3.50;;
9117;SDS011;4594;50.994;7.126;2023-02-28T01:50:07;4.23;;;3.83;;
9117;SDS011;4594;50.994;7.126;2023-02-28T01:52:41;3.87;;;3.67;;
9117;SDS011;4594;50.994;7.126;2023-02-28T01:55:08;5.10;;;3.70;;
9117;SDS011;4594;50.994;7.126;2023-02-28T01:57:41;4.67;;;4.27;;
9117;SDS011;4594;50.994;7.126;2023-02-28T02:00:13;4.23;;;3.70;;
9117;SDS011;4594;50.994;7.126;2023-02-28T02:02:44;3.93;;;3.73;;
9117;SDS011;4594;50.994;7.126;2023-02-28T02:05:18;3.80;;;3.60;;
9117;SDS011;4594;50.994;7.126;2023-02-28T02:07:48;4.60;;;4.20;;
9117;SDS011;4594;50.994;7.126;2023-02-28T02:10:20;3.93;;;3.70;;
9117;SDS011;4594;50.994;7.126;2023-02-28T02:18:41;3.90;;;3.70;;
9117;SDS011;4594;50.994;7.126;2023-02-28T02:27:32;3.70;;;3.60;;
9117;SDS011;4594;50.994;7.126;2023-02-28T02:45:57;6.40;;;4.17;;
9117;SDS011;4594;50.994;7.126;2023-02-28T02:48:31;7.50;;;4.97;;
9117;SDS011;4594;50.994;7.126;2023-02-28T02:51:01;3.87;;;3.77;;
9117;SDS011;4594;50.994;7.126;2023-02-28T02:53:37;3.93;;;3.73;;
9117;SDS011;4594;50.994;7.126;2023-02-28T02:56:14;4.53;;;4.20;;
9117;SDS011;4594;50.994;7.126;2023-02-28T02:58:44;4.40;;;4.00;;
9117;SDS011;4594;50.994;7.126;2023-02-28T03:01:17;4.17;;;3.97;;
9117;SDS011;4594;50.994;7.126;2023-02-28T03:03:53;5.17;;;4.23;;
9117;SDS011;4594;50.994;7.126;2023-02-28T03:06:26;4.20;;;4.00;;
9117;SDS011;4594;50.994;7.126;2023-02-28T03:08:52;4.00;;;3.87;;
9117;SDS011;4594;50.994;7.126;2023-02-28T03:11:18;4.57;;;4.27;;
9117;SDS011;4594;50.994;7.126;2023-02-28T03:28:31;3.67;;;3.57;;
9117;SDS011;4594;50.994;7.126;2023-02-28T03:31:26;4.20;;;4.00;;
9117;SDS011;4594;50.994;7.126;2023-02-28T03:34:08;4.40;;;4.10;;
9117;SDS011;4594;50.994;7.126;2023-02-28T03:36:48;4.10;;;3.90;;
9117;SDS011;4594;50.994;7.126;2023-02-28T03:39:27;4.68;;;4.28;;
9117;SDS011;4594;50.994;7.126;2023-02-28T03:42:07;4.10;;;3.97;;
9117;SDS011;4594;50.994;7.126;2023-02-28T03:44:41;4.33;;;4.10;;
9117;SDS011;4594;50.994;7.126;2023-02-28T03:47:14;3.73;;;3.63;;
9117;SDS011;4594;50.994;7.126;2023-02-28T03:49:53;4.37;;;4.03;;
9117;SDS011;4594;50.994;7.126;2023-02-28T03:53:52;4.40;;;4.10;;
9117;SDS011;4594;50.994;7.126;2023-02-28T03:56:08;4.30;;;4.10;;
9117;SDS011;4594;50.994;7.126;2023-02-28T03:59:00;4.27;;;4.07;;
9117;SDS011;4594;50.994;7.126;2023-02-28T04:01:39;4.45;;;4.13;;
9117;SDS011;4594;50.994;7.126;2023-02-28T04:04:09;4.57;;;4.17;;
9117;SDS011;4594;50.994;7.126;2023-02-28T04:06:36;4.00;;;3.80;;
9117;SDS011;4594;50.994;7.126;2023-02-28T04:09:03;4.30;;;4.05;;
9117;SDS011;4594;50.994;7.126;2023-02-28T04:14:09;4.50;;;4.20;;
9117;SDS011;4594;50.994;7.126;2023-02-28T04:16:37;4.40;;;3.90;;
9117;SDS011;4594;50.994;7.126;2023-02-28T04:19:06;4.60;;;4.30;;
9117;SDS011;4594;50.994;7.126;2023-02-28T04:21:36;4.83;;;4.40;;
9117;SDS011;4594;50.994;7.126;2023-02-28T04:24:05;5.05;;;4.30;;
9117;SDS011;4594;50.994;7.126;2023-02-28T04:26:33;4.90;;;4.47;;
9117;SDS011;4594;50.994;7.126;2023-02-28T04:29:01;5.40;;;4.50;;
9117;SDS011;4594;50.994;7.126;2023-02-28T04:31:30;5.30;;;4.80;;
9117;SDS011;4594;50.994;7.126;2023-02-28T04:33:56;4.60;;;4.30;;
9117;SDS011;4594;50.994;7.126;2023-02-28T04:36:22;4.87;;;4.57;;
9117;SDS011;4594;50.994;7.126;2023-02-28T04:38:48;4.70;;;4.40;;
9117;SDS011;4594;50.994;7.126;2023-02-28T04:41:15;4.70;;;4.33;;
9117;SDS011;4594;50.994;7.126;2023-02-28T04:43:41;4.50;;;4.20;;
9117;SDS011;4594;50.994;7.126;2023-02-28T04:46:08;5.37;;;5.00;;
9117;SDS011;4594;50.994;7.126;2023-02-28T04:48:36;5.47;;;5.07;;
9117;SDS011;4594;50.994;7.126;2023-02-28T04:51:05;5.13;;;4.73;;
9117;SDS011;4594;50.994;7.126;2023-02-28T04:53:34;5.80;;;5.27;;
9117;SDS011;4594;50.994;7.126;2023-02-28T04:56:01;10.80;;;6.53;;
9117;SDS011;4594;50.994;7.126;2023-02-28T04:58:28;12.17;;;5.50;;
9117;SDS011;4594;50.994;7.126;2023-02-28T05:00:55;5.90;;;5.30;;
9117;SDS011;4594;50.994;7.126;2023-02-28T05:03:37;5.40;;;4.90;;
9117;SDS011;4594;50.994;7.126;2023-02-28T05:06:07;5.23;;;4.83;;
9117;SDS011;4594;50.994;7.126;2023-02-28T05:08:35;7.43;;;5.30;;
9117;SDS011;4594;50.994;7.126;2023-02-28T05:11:01;6.83;;;5.90;;
9117;SDS011;4594;50.994;7.126;2023-02-28T05:13:28;9.98;;;7.57;;
9117;SDS011;4594;50.994;7.126;2023-02-28T05:15:54;9.90;;;6.07;;
9117;SDS011;4594;50.994;7.126;2023-02-28T05:18:21;39.00;;;17.07;;
9117;SDS011;4594;50.994;7.126;2023-02-28T05:20:47;28.17;;;14.03;;
9117;SDS011;4594;50.994;7.126;2023-02-28T05:23:13;76.00;;;30.87;;
9117;SDS011;4594;50.994;7.126;2023-02-28T05:25:41;57.00;;;23.30;;
9117;SDS011;4594;50.994;7.126;2023-02-28T05:28:06;28.73;;;12.47;;
9117;SDS011;4594;50.994;7.126;2023-02-28T05:30:32;14.50;;;8.80;;
9117;SDS011;4594;50.994;7.126;2023-02-28T05:32:58;21.40;;;11.27;;
9117;SDS011;4594;50.994;7.126;2023-02-28T05:35:25;13.52;;;7.95;;
9117;SDS011;4594;50.994;7.126;2023-02-28T05:37:51;14.07;;;7.80;;
9117;SDS011;4594;50.994;7.126;2023-02-28T05:40:17;22.77;;;13.73;;
9117;SDS011;4594;50.994;7.126;2023-02-28T05:42:45;14.37;;;9.30;;
9117;SDS011;4594;50.994;7.126;2023-02-28T05:45:11;8.43;;;7.20;;
9117;SDS011;4594;50.994;7.126;2023-02-28T05:47:37;7.57;;;6.20;;
9117;SDS011;4594;50.994;7.126;2023-02-28T05:50:04;5.30;;;4.90;;
9117;SDS011;4594;50.994;7.126;2023-02-28T05:52:30;4.97;;;4.68;;
9117;SDS011;4594;50.994;7.126;2023-02-28T05:54:57;5.10;;;4.30;;
9117;SDS011;4594;50.994;7.126;2023-02-28T05:57:22;4.53;;;4.33;;
9117;SDS011;4594;50.994;7.126;2023-02-28T05:59:48;4.50;;;4.28;;
9117;SDS011;4594;50.994;7.126;2023-02-28T06:02:15;4.40;;;4.00;;
9117;SDS011;4594;50.994;7.126;2023-02-28T06:04:43;4.13;;;4.03;;
9117;SDS011;4594;50.994;7.126;2023-02-28T06:07:09;4.50;;;4.22;;
9117;SDS011;4594;50.994;7.126;2023-02-28T06:09:35;4.18;;;3.97;;
9117;SDS011;4594;50.994;7.126;2023-02-28T06:12:02;4.53;;;4.20;;
9117;SDS011;4594;50.994;7.126;2023-02-28T06:14:32;4.27;;;3.97;;
9117;SDS011;4594;50.994;7.126;2023-02-28T06:16:59;3.87;;;3.70;;
9117;SDS011;4594;50.994;7.126;2023-02-28T06:19:26;4.83;;;4.13;;
9117;SDS011;4594;50.994;7.126;2023-02-28T06:21:53;4.03;;;3.83;;
9117;SDS011;4594;50.994;7.126;2023-02-28T06:24:23;4.97;;;4.67;;
9117;SDS011;4594;50.994;7.126;2023-02-28T06:26:52;5.47;;;4.37;;
9117;SDS011;4594;50.994;7.126;2023-02-28T06:29:18;4.43;;;4.13;;
9117;SDS011;4594;50.994;7.126;2023-02-28T06:31:45;5.33;;;4.40;;
9117;SDS011;4594;50.994;7.126;2023-02-28T06:34:11;4.10;;;3.90;;
9117;SDS011;4594;50.994;7.126;2023-02-28T06:36:39;5.00;;;4.57;;
9117;SDS011;4594;50.994;7.126;2023-02-28T06:39:06;4.93;;;4.47;;
9117;SDS011;4594;50.994;7.126;2023-02-28T06:41:33;4.10;;;4.00;;
9117;SDS011;4594;50.994;7.126;2023-02-28T06:44:05;4.38;;;4.15;;
9117;SDS011;4594;50.994;7.126;2023-02-28T06:46:38;7.03;;;3.70;;
9117;SDS011;4594;50.994;7.126;2023-02-28T06:49:05;4.37;;;4.13;;
9117;SDS011;4594;50.994;7.126;2023-02-28T06:51:33;4.20;;;3.90;;
9117;SDS011;4594;50.994;7.126;2023-02-28T06:54:01;4.23;;;3.90;;
9117;SDS011;4594;50.994;7.126;2023-02-28T06:56:28;3.90;;;3.70;;
9117;SDS011;4594;50.994;7.126;2023-02-28T06:58:53;3.80;;;3.70;;
9117;SDS011;4594;50.994;7.126;2023-02-28T07:01:19;3.93;;;3.70;;
9117;SDS011;4594;50.994;7.126;2023-02-28T07:03:47;3.97;;;3.80;;
9117;SDS011;4594;50.994;7.126;2023-02-28T07:06:16;3.40;;;3.30;;
9117;SDS011;4594;50.994;7.126;2023-02-28T07:08:47;3.87;;;3.50;;
9117;SDS011;4594;50.994;7.126;2023-02-28T07:11:14;3.40;;;3.20;;
9117;SDS011;4594;50.994;7.126;2023-02-28T07:13:40;3.70;;;3.40;;
9117;SDS011;4594;50.994;7.126;2023-02-28T07:16:07;3.30;;;3.20;;
9117;SDS011;4594;50.994;7.126;2023-02-28T07:18:35;3.03;;;2.83;;
9117;SDS011;4594;50.994;7.126;2023-02-28T07:21:03;3.00;;;2.87;;
9117;SDS011;4594;50.994;7.126;2023-02-28T07:23:31;4.53;;;3.20;;
9117;SDS011;4594;50.994;7.126;2023-02-28T07:25:57;3.40;;;3.10;;
9117;SDS011;4594;50.994;7.126;2023-02-28T07:28:23;3.23;;;2.93;;
9117;SDS011;4594;50.994;7.126;2023-02-28T07:30:49;3.00;;;2.90;;
9117;SDS011;4594;50.994;7.126;2023-02-28T07:33:15;3.00;;;2.90;;
9117;SDS011;4594;50.994;7.126;2023-02-28T07:35:41;3.10;;;2.90;;
9117;SDS011;4594;50.994;7.126;2023-02-28T07:38:07;3.10;;;2.90;;
9117;SDS011;4594;50.994;7.126;2023-02-28T07:40:34;3.20;;;3.00;;
9117;SDS011;4594;50.994;7.126;2023-02-28T07:43:00;3.07;;;2.90;;
9117;SDS011;4594;50.994;7.126;2023-02-28T07:45:28;3.57;;;2.80;;
9117;SDS011;4594;50.994;7.126;2023-02-28T07:47:55;2.70;;;2.60;;
9117;SDS011;4594;50.994;7.126;2023-02-28T07:50:21;3.37;;;2.40;;
9117;SDS011;4594;50.994;7.126;2023-02-28T07:52:47;3.10;;;2.90;;
9117;SDS011;4594;50.994;7.126;2023-02-28T07:55:12;2.80;;;2.60;;
9117;SDS011;4594;50.994;7.126;2023-02-28T07:57:39;2.63;;;2.47;;
9117;SDS011;4594;50.994;7.126;2023-02-28T08:00:06;2.60;;;2.50;;
9117;SDS011;4594;50.994;7.126;2023-02-28T08:02:35;2.70;;;2.60;;
9117;SDS011;4594;50.994;7.126;2023-02-28T08:05:01;2.57;;;2.47;;
9117;SDS011;4594;50.994;7.126;2023-02-28T08:07:27;2.40;;;2.30;;
9117;SDS011;4594;50.994;7.126;2023-02-28T08:09:53;2.50;;;2.40;;
9117;SDS011;4594;50.994;7.126;2023-02-28T08:12:19;4.33;;;4.00;;
9117;SDS011;4594;50.994;7.126;2023-02-28T08:14:45;8.27;;;6.47;;
9117;SDS011;4594;50.994;7.126;2023-02-28T08:17:10;4.53;;;3.93;;
9117;SDS011;4594;50.994;7.126;2023-02-28T08:19:37;11.63;;;8.10;;
9117;SDS011;4594;50.994;7.126;2023-02-28T08:22:03;5.00;;;4.20;;
9117;SDS011;4594;50.994;7.126;2023-02-28T08:24:28;4.03;;;3.73;;
9117;SDS011;4594;50.994;7.126;2023-02-28T08:26:54;7.93;;;5.53;;
9117;SDS011;4594;50.994;7.126;2023-02-28T08:29:20;9.63;;;5.67;;
9117;SDS011;4594;50.994;7.126;2023-02-28T08:31:47;14.57;;;9.10;;
9117;SDS011;4594;50.994;7.126;2023-02-28T08:34:14;5.60;;;4.23;;
9117;SDS011;4594;50.994;7.126;2023-02-28T08:36:41;4.63;;;3.60;;
9117;SDS011;4594;50.994;7.126;2023-02-28T08:39:09;3.17;;;2.97;;
9117;SDS011;4594;50.994;7.126;2023-02-28T08:41:35;2.97;;;2.67;;
9117;SDS011;4594;50.994;7.126;2023-02-28T08:44:02;2.10;;;1.90;;
9117;SDS011;4594;50.994;7.126;2023-02-28T08:46:28;1.67;;;1.67;;
9117;SDS011;4594;50.994;7.126;2023-02-28T08:48:55;2.00;;;1.90;;
9117;SDS011;4594;50.994;7.126;2023-02-28T08:51:26;3.87;;;3.57;;
9117;SDS011;4594;50.994;7.126;2023-02-28T08:53:54;3.10;;;2.90;;
9117;SDS011;4594;50.994;7.126;2023-02-28T08:56:23;2.17;;;2.07;;
9117;SDS011;4594;50.994;7.126;2023-02-28T08:58:49;2.00;;;1.90;;
9117;SDS011;4594;50.994;7.126;2023-02-28T09:01:17;6.73;;;4.87;;
9117;SDS011;4594;50.994;7.126;2023-02-28T09:03:46;2.47;;;2.37;;
9117;SDS011;4594;50.994;7.126;2023-02-28T09:06:14;2.10;;;2.00;;
9117;SDS011;4594;50.994;7.126;2023-02-28T09:08:42;1.67;;;1.57;;
9117;SDS011;4594;50.994;7.126;2023-02-28T09:11:09;1.87;;;1.53;;
9117;SDS011;4594;50.994;7.126;2023-02-28T09:13:36;2.10;;;2.00;;
9117;SDS011;4594;50.994;7.126;2023-02-28T09:16:04;1.73;;;1.63;;
9117;SDS011;4594;50.994;7.126;2023-02-28T09:18:33;1.67;;;1.60;;
9117;SDS011;4594;50.994;7.126;2023-02-28T09:21:04;1.70;;;1.70;;
9117;SDS011;4594;50.994;7.126;2023-02-28T09:23:31;1.77;;;1.67;;
9117;SDS011;4594;50.994;7.126;2023-02-28T09:25:57;1.30;;;1.30;;
9117;SDS011;4594;50.994;7.126;2023-02-28T09:28:23;2.10;;;1.40;;
9117;SDS011;4594;50.994;7.126;2023-02-28T09:30:50;1.33;;;1.33;;
9117;SDS011;4594;50.994;7.126;2023-02-28T09:33:18;1.30;;;1.30;;
9117;SDS011;4594;50.994;7.126;2023-02-28T09:35:46;6.53;;;4.07;;
9117;SDS011;4594;50.994;7.126;2023-02-28T09:38:16;5.47;;;3.93;;
9117;SDS011;4594;50.994;7.126;2023-02-28T09:40:50;4.70;;;3.60;;
9117;SDS011;4594;50.994;7.126;2023-02-28T09:43:21;4.73;;;3.80;;
9117;SDS011;4594;50.994;7.126;2023-02-28T09:46:17;2.63;;;2.43;;
9117;SDS011;4594;50.994;7.126;2023-02-28T09:48:52;1.50;;;1.50;;
9117;SDS011;4594;50.994;7.126;2023-02-28T09:54:04;1.87;;;1.77;;
9117;SDS011;4594;50.994;7.126;2023-02-28T09:56:33;2.93;;;2.67;;
9117;SDS011;4594;50.994;7.126;2023-02-28T10:01:55;2.27;;;2.17;;
9117;SDS011;4594;50.994;7.126;2023-02-28T10:04:50;1.90;;;1.80;;
9117;SDS011;4594;50.994;7.126;2023-02-28T10:07:46;1.40;;;1.40;;
9117;SDS011;4594;50.994;7.126;2023-02-28T10:13:00;1.43;;;1.33;;
9117;SDS011;4594;50.994;7.126;2023-02-28T10:15:31;1.23;;;1.23;;
9117;SDS011;4594;50.994;7.126;2023-02-28T10:18:01;1.40;;;1.30;;
9117;SDS011;4594;50.994;7.126;2023-02-28T10:20:33;4.87;;;3.87;;
9117;SDS011;4594;50.994;7.126;2023-02-28T10:23:09;2.23;;;2.13;;
9117;SDS011;4594;50.994;7.126;2023-02-28T10:26:00;1.50;;;1.40;;
9117;SDS011;4594;50.994;7.126;2023-02-28T10:28:41;1.40;;;1.40;;
9117;SDS011;4594;50.994;7.126;2023-02-28T10:31:18;1.20;;;1.20;;
9117;SDS011;4594;50.994;7.126;2023-02-28T10:33:45;1.50;;;1.40;;
9117;SDS011;4594;50.994;7.126;2023-02-28T10:36:17;4.73;;;1.80;;
9117;SDS011;4594;50.994;7.126;2023-02-28T10:38:45;1.60;;;1.60;;
9117;SDS011;4594;50.994;7.126;2023-02-28T10:41:14;2.13;;;2.03;;
9117;SDS011;4594;50.994;7.126;2023-02-28T10:43:53;2.17;;;2.03;;
9117;SDS011;4594;50.994;7.126;2023-02-28T10:46:39;3.73;;;3.33;;
9117;SDS011;4594;50.994;7.126;2023-02-28T10:49:12;2.77;;;2.27;;
9117;SDS011;4594;50.994;7.126;2023-02-28T10:51:46;1.90;;;1.67;;
9117;SDS011;4594;50.994;7.126;2023-02-28T10:54:29;2.20;;;1.73;;
9117;SDS011;4594;50.994;7.126;2023-02-28T10:57:22;2.10;;;2.00;;
9117;SDS011;4594;50.994;7.126;2023-02-28T11:00:05;1.90;;;1.80;;
9117;SDS011;4594;50.994;7.126;2023-02-28T11:02:41;2.20;;;2.10;;
9117;SDS011;4594;50.994;7.126;2023-02-28T11:05:26;2.30;;;2.10;;
9117;SDS011;4594;50.994;7.126;2023-02-28T11:08:06;2.53;;;2.33;;
9117;SDS011;4594;50.994;7.126;2023-02-28T11:10:44;11.73;;;2.40;;
9117;SDS011;4594;50.994;7.126;2023-02-28T11:13:32;2.30;;;2.20;;
9117;SDS011;4594;50.994;7.126;2023-02-28T11:16:04;3.03;;;2.87;;
9117;SDS011;4594;50.994;7.126;2023-02-28T11:18:36;2.80;;;2.70;;
9117;SDS011;4594;50.994;7.126;2023-02-28T11:21:28;2.77;;;2.67;;
9117;SDS011;4594;50.994;7.126;2023-02-28T11:24:44;3.50;;;3.30;;
9117;SDS011;4594;50.994;7.126;2023-02-28T11:26:58;4.37;;;3.97;;
9117;SDS011;4594;50.994;7.126;2023-02-28T11:29:26;3.90;;;3.60;;
9117;SDS011;4594;50.994;7.126;2023-02-28T11:34:28;3.67;;;3.37;;
9117;SDS011;4594;50.994;7.126;2023-02-28T11:36:56;3.87;;;3.00;;
9117;SDS011;4594;50.994;7.126;2023-02-28T11:39:25;3.00;;;2.90;;
9117;SDS011;4594;50.994;7.126;2023-02-28T11:48:18;3.17;;;3.07;;
9117;SDS011;4594;50.994;7.126;2023-02-28T11:51:00;3.37;;;3.03;;
9117;SDS011;4594;50.994;7.126;2023-02-28T11:56:39;3.40;;;3.20;;
9117;SDS011;4594;50.994;7.126;2023-02-28T12:11:16;3.33;;;3.13;;
9117;SDS011;4594;50.994;7.126;2023-02-28T12:14:02;3.53;;;3.10;;
9117;SDS011;4594;50.994;7.126;2023-02-28T12:26:19;3.73;;;3.43;;
9117;SDS011;4594;50.994;7.126;2023-02-28T12:29:07;3.90;;;3.60;;
9117;SDS011;4594;50.994;7.126;2023-02-28T12:31:49;5.27;;;4.80;;
9117;SDS011;4594;50.994;7.126;2023-02-28T12:37:31;4.50;;;4.10;;
9117;SDS011;4594;50.994;7.126;2023-02-28T12:40:21;5.17;;;4.67;;
9117;SDS011;4594;50.994;7.126;2023-02-28T12:42:52;7.67;;;5.93;;
9117;SDS011;4594;50.994;7.126;2023-02-28T12:45:39;6.47;;;4.30;;
9117;SDS011;4594;50.994;7.126;2023-02-28T12:48:31;9.67;;;5.47;;
9117;SDS011;4594;50.994;7.126;2023-02-28T12:51:08;4.33;;;4.00;;
9117;SDS011;4594;50.994;7.126;2023-02-28T12:53:57;4.50;;;4.10;;
9117;SDS011;4594;50.994;7.126;2023-02-28T13:02:22;6.20;;;4.83;;
9117;SDS011;4594;50.994;7.126;2023-02-28T13:11:31;5.00;;;4.60;;
9117;SDS011;4594;50.994;7.126;2023-02-28T13:19:46;4.17;;;3.87;;
9117;SDS011;4594;50.994;7.126;2023-02-28T13:24:50;9.13;;;6.60;;
9117;SDS011;4594;50.994;7.126;2023-02-28T13:27:35;4.90;;;4.50;;
9117;SDS011;4594;50.994;7.126;2023-02-28T13:38:39;5.43;;;4.77;;
9117;SDS011;4594;50.994;7.126;2023-02-28T13:44:09;4.40;;;4.07;;
9117;SDS011;4594;50.994;7.126;2023-02-28T13:51:48;4.47;;;4.17;;
9117;SDS011;4594;50.994;7.126;2023-02-28T13:57:25;6.33;;;4.30;;
9117;SDS011;4594;50.994;7.126;2023-02-28T14:06:13;3.93;;;3.70;;
9117;SDS011;4594;50.994;7.126;2023-02-28T14:11:56;4.07;;;3.77;;
9117;SDS011;4594;50.994;7.126;2023-02-28T14:17:12;4.60;;;4.27;;
9117;SDS011;4594;50.994;7.126;2023-02-28T14:19:45;4.73;;;4.33;;
9117;SDS011;4594;50.994;7.126;2023-02-28T14:25:26;4.43;;;4.03;;
9117;SDS011;4594;50.994;7.126;2023-02-28T14:28:18;4.40;;;3.77;;
9117;SDS011;4594;50.994;7.126;2023-02-28T14:36:42;4.07;;;3.53;;
9117;SDS011;4594;50.994;7.126;2023-02-28T14:39:17;3.70;;;3.50;;
9117;SDS011;4594;50.994;7.126;2023-02-28T14:41:49;3.50;;;3.30;;
9117;SDS011;4594;50.994;7.126;2023-02-28T14:44:19;4.40;;;4.13;;
9117;SDS011;4594;50.994;7.126;2023-02-28T14:46:49;3.90;;;3.60;;
9117;SDS011;4594;50.994;7.126;2023-02-28T14:49:28;4.30;;;4.10;;
9117;SDS011;4594;50.994;7.126;2023-02-28T14:54:54;3.90;;;3.50;;
9117;SDS011;4594;50.994;7.126;2023-02-28T14:57:25;4.13;;;3.67;;
9117;SDS011;4594;50.994;7.126;2023-02-28T15:00:03;3.90;;;3.70;;
9117;SDS011;4594;50.994;7.126;2023-02-28T15:02:41;3.60;;;3.40;;
9117;SDS011;4594;50.994;7.126;2023-02-28T15:07:43;3.00;;;2.90;;
9117;SDS011;4594;50.994;7.126;2023-02-28T15:13:12;3.03;;;2.93;;
9117;SDS011;4594;50.994;7.126;2023-02-28T15:21:28;4.37;;;4.07;;
9117;SDS011;4594;50.994;7.126;2023-02-28T15:24:07;4.23;;;3.90;;
9117;SDS011;4594;50.994;7.126;2023-02-28T15:26:53;5.10;;;4.70;;
9117;SDS011;4594;50.994;7.126;2023-02-28T15:29:25;4.67;;;4.23;;
9117;SDS011;4594;50.994;7.126;2023-02-28T15:32:00;8.00;;;4.47;;
9117;SDS011;4594;50.994;7.126;2023-02-28T15:34:38;8.07;;;4.97;;
9117;SDS011;4594;50.994;7.126;2023-02-28T15:40:32;4.40;;;4.10;;
9117;SDS011;4594;50.994;7.126;2023-02-28T15:45:53;5.07;;;4.70;;
9117;SDS011;4594;50.994;7.126;2023-02-28T15:48:26;4.53;;;4.23;;
9117;SDS011;4594;50.994;7.126;2023-02-28T15:50:53;3.90;;;3.70;;
9117;SDS011;4594;50.994;7.126;2023-02-28T15:56:27;4.43;;;4.23;;
9117;SDS011;4594;50.994;7.126;2023-02-28T15:59:01;4.17;;;3.87;;
9117;SDS011;4594;50.994;7.126;2023-02-28T16:01:34;3.97;;;3.77;;
9117;SDS011;4594;50.994;7.126;2023-02-28T16:04:03;4.20;;;3.80;;
9117;SDS011;4594;50.994;7.126;2023-02-28T16:06:40;3.90;;;3.60;;
9117;SDS011;4594;50.994;7.126;2023-02-28T16:09:14;4.07;;;3.83;;
9117;SDS011;4594;50.994;7.126;2023-02-28T16:11:45;4.10;;;3.80;;
9117;SDS011;4594;50.994;7.126;2023-02-28T16:14:18;4.23;;;3.93;;
9117;SDS011;4594;50.994;7.126;2023-02-28T16:16:53;4.07;;;3.83;;
9117;SDS011;4594;50.994;7.126;2023-02-28T16:19:21;4.60;;;4.20;;
9117;SDS011;4594;50.994;7.126;2023-02-28T16:21:48;3.83;;;3.57;;
9117;SDS011;4594;50.994;7.126;2023-02-28T16:24:14;3.50;;;3.30;;
9117;SDS011;4594;50.994;7.126;2023-02-28T16:26:40;4.40;;;4.00;;
9117;SDS011;4594;50.994;7.126;2023-02-28T16:29:10;3.33;;;3.20;;
9117;SDS011;4594;50.994;7.126;2023-02-28T16:31:56;3.70;;;3.40;;
9117;SDS011;4594;50.994;7.126;2023-02-28T16:34:24;3.93;;;3.63;;
9117;SDS011;4594;50.994;7.126;2023-02-28T16:36:51;3.87;;;3.57;;
9117;SDS011;4594;50.994;7.126;2023-02-28T16:39:17;3.53;;;3.30;;
9117;SDS011;4594;50.994;7.126;2023-02-28T16:41:45;3.20;;;3.10;;
9117;SDS011;4594;50.994;7.126;2023-02-28T16:44:28;3.30;;;3.20;;
9117;SDS011;4594;50.994;7.126;2023-02-28T16:47:02;3.57;;;3.37;;
9117;SDS011;4594;50.994;7.126;2023-02-28T16:49:29;3.47;;;3.30;;
9117;SDS011;4594;50.994;7.126;2023-02-28T16:51:55;3.90;;;3.60;;
9117;SDS011;4594;50.994;7.126;2023-02-28T16:54:21;3.73;;;3.53;;
9117;SDS011;4594;50.994;7.126;2023-02-28T16:56:50;3.93;;;3.73;;
9117;SDS011;4594;50.994;7.126;2023-02-28T16:59:18;4.13;;;3.73;;
9117;SDS011;4594;50.994;7.126;2023-02-28T17:01:50;3.70;;;3.50;;
9117;SDS011;4594;50.994;7.126;2023-02-28T17:04:16;3.60;;;3.50;;
9117;SDS011;4594;50.994;7.126;2023-02-28T17:06:46;4.27;;;4.07;;
9117;SDS011;4594;50.994;7.126;2023-02-28T17:09:29;3.87;;;3.67;;
9117;SDS011;4594;50.994;7.126;2023-02-28T17:11:55;3.73;;;3.43;;
9117;SDS011;4594;50.994;7.126;2023-02-28T17:14:21;3.67;;;3.47;;
9117;SDS011;4594;50.994;7.126;2023-02-28T17:16:48;3.80;;;3.60;;
9117;SDS011;4594;50.994;7.126;2023-02-28T17:19:14;3.93;;;3.70;;
9117;SDS011;4594;50.994;7.126;2023-02-28T17:21:42;4.07;;;3.87;;
9117;SDS011;4594;50.994;7.126;2023-02-28T17:24:08;4.40;;;4.20;;
9117;SDS011;4594;50.994;7.126;2023-02-28T17:26:37;4.33;;;4.03;;
9117;SDS011;4594;50.994;7.126;2023-02-28T17:29:13;4.50;;;3.77;;
9117;SDS011;4594;50.994;7.126;2023-02-28T17:31:45;3.90;;;3.70;;
9117;SDS011;4594;50.994;7.126;2023-02-28T17:34:11;4.43;;;4.03;;
9117;SDS011;4594;50.994;7.126;2023-02-28T17:36:43;3.90;;;3.70;;
9117;SDS011;4594;50.994;7.126;2023-02-28T17:39:11;4.00;;;3.80;;
9117;SDS011;4594;50.994;7.126;2023-02-28T17:41:39;4.60;;;4.30;;
9117;SDS011;4594;50.994;7.126;2023-02-28T17:44:06;4.30;;;4.00;;
9117;SDS011;4594;50.994;7.126;2023-02-28T17:46:33;5.27;;;4.07;;
9117;SDS011;4594;50.994;7.126;2023-02-28T17:48:59;4.67;;;4.27;;
9117;SDS011;4594;50.994;7.126;2023-02-28T17:51:26;4.23;;;4.00;;
9117;SDS011;4594;50.994;7.126;2023-02-28T17:53:51;4.53;;;4.23;;
9117;SDS011;4594;50.994;7.126;2023-02-28T17:56:22;4.07;;;3.80;;
9117;SDS011;4594;50.994;7.126;2023-02-28T17:58:50;4.17;;;3.97;;
9117;SDS011;4594;50.994;7.126;2023-02-28T18:01:18;4.47;;;4.17;;
9117;SDS011;4594;50.994;7.126;2023-02-28T18:03:47;4.60;;;4.33;;
9117;SDS011;4594;50.994;7.126;2023-02-28T18:06:15;4.77;;;4.20;;
9117;SDS011;4594;50.994;7.126;2023-02-28T18:08:49;4.40;;;4.20;;
9117;SDS011;4594;50.994;7.126;2023-02-28T18:11:17;4.77;;;4.37;;
9117;SDS011;4594;50.994;7.126;2023-02-28T18:13:45;5.03;;;4.63;;
9117;SDS011;4594;50.994;7.126;2023-02-28T18:16:14;4.67;;;4.37;;
9117;SDS011;4594;50.994;7.126;2023-02-28T18:18:41;4.77;;;4.37;;
9117;SDS011;4594;50.994;7.126;2023-02-28T18:21:08;5.17;;;4.70;;
9117;SDS011;4594;50.994;7.126;2023-02-28T18:23:36;5.17;;;4.77;;
9117;SDS011;4594;50.994;7.126;2023-02-28T18:26:05;6.03;;;4.43;;
9117;SDS011;4594;50.994;7.126;2023-02-28T18:28:32;5.03;;;4.73;;
9117;SDS011;4594;50.994;7.126;2023-02-28T18:31:04;5.10;;;4.70;;
9117;SDS011;4594;50.994;7.126;2023-02-28T18:33:32;5.27;;;4.77;;
9117;SDS011;4594;50.994;7.126;2023-02-28T18:35:58;5.63;;;5.13;;
9117;SDS011;4594;50.994;7.126;2023-02-28T18:38:24;7.07;;;5.80;;
9117;SDS011;4594;50.994;7.126;2023-02-28T18:40:57;5.70;;;5.20;;
9117;SDS011;4594;50.994;7.126;2023-02-28T18:43:27;7.27;;;5.67;;
9117;SDS011;4594;50.994;7.126;2023-02-28T18:45:55;5.53;;;4.97;;
9117;SDS011;4594;50.994;7.126;2023-02-28T18:48:21;4.97;;;4.57;;
9117;SDS011;4594;50.994;7.126;2023-02-28T18:50:50;5.70;;;5.10;;
9117;SDS011;4594;50.994;7.126;2023-02-28T18:53:17;7.30;;;4.80;;
9117;SDS011;4594;50.994;7.126;2023-02-28T18:55:43;4.97;;;4.57;;
9117;SDS011;4594;50.994;7.126;2023-02-28T18:58:09;5.43;;;4.57;;
9117;SDS011;4594;50.994;7.126;2023-02-28T19:00:35;6.13;;;4.80;;
9117;SDS011;4594;50.994;7.126;2023-02-28T19:03:01;4.90;;;4.50;;
9117;SDS011;4594;50.994;7.126;2023-02-28T19:05:28;5.33;;;4.90;;
9117;SDS011;4594;50.994;7.126;2023-02-28T19:07:58;5.53;;;5.03;;
9117;SDS011;4594;50.994;7.126;2023-02-28T19:10:28;5.10;;;4.70;;